<?xml version="1.0" encoding="utf-8"?>
<gpx xmlns:xsi="http://www.w3.org/2001/XMLSchema-instance" xmlns:xsd="http://www.w3.org/2001/XMLSchema" version="1.1" creator="Shapelink.com" xmlns="http://www.topografix.com/GPX/1/1" xmlns:gpxtpx="http://www.garmin.com/xmlschemas/TrackPointExtension/v1">
  <metadata>
    <name>Övrigt 2.84 km, 2020-08-08</name>
    <desc></desc>
    <author><name>Marian Moron</name></author> 
    <time>2020-08-08T20:05:03Z</time>
  </metadata>
  <trk>
    <name>Övrigt 2.84 km, 2020-08-08</name>
    <trkseg>
      <trkpt lat="51.229786897324" lon="4.457975373422">
        <ele>0</ele>
        <time>2020-08-08T20:05:03Z</time>
      </trkpt>
      <trkpt lat="51.229842888416" lon="4.458010661221">
        <ele>0</ele>
        <time>2020-08-08T20:05:07Z</time>
      </trkpt>
      <trkpt lat="51.229979010472" lon="4.458530674297">
        <ele>0.6</ele>
        <time>2020-08-08T20:05:33Z</time>
      </trkpt>
      <trkpt lat="51.230084706231" lon="4.459048843355">
        <ele>0.4</ele>
        <time>2020-08-08T20:05:55Z</time>
      </trkpt>
      <trkpt lat="51.230118150012" lon="4.459054543047">
        <ele>1.4</ele>
        <time>2020-08-08T20:06:07Z</time>
      </trkpt>
      <trkpt lat="51.230217559346" lon="4.45901657304">
        <ele>0.2</ele>
        <time>2020-08-08T20:06:21Z</time>
      </trkpt>
      <trkpt lat="51.23033959981" lon="4.458999390145">
        <ele>0</ele>
        <time>2020-08-08T20:06:36Z</time>
      </trkpt>
      <trkpt lat="51.230518218099" lon="4.459546728215">
        <ele>1.4</ele>
        <time>2020-08-08T20:07:20Z</time>
      </trkpt>
      <trkpt lat="51.230483265576" lon="4.459612274673">
        <ele>1</ele>
        <time>2020-08-08T20:07:31Z</time>
      </trkpt>
      <trkpt lat="51.230556858658" lon="4.459817212128">
        <ele>1</ele>
        <time>2020-08-08T20:07:48Z</time>
      </trkpt>
      <trkpt lat="51.230914681969" lon="4.4597240054">
        <ele>0.8</ele>
        <time>2020-08-08T20:08:28Z</time>
      </trkpt>
      <trkpt lat="51.230982240083" lon="4.459669942145">
        <ele>0.6</ele>
        <time>2020-08-08T20:08:33Z</time>
      </trkpt>
      <trkpt lat="51.231220202224" lon="4.459715707319">
        <ele>1</ele>
        <time>2020-08-08T20:09:02Z</time>
      </trkpt>
      <trkpt lat="51.231556148776" lon="4.459645634635">
        <ele>0</ele>
        <time>2020-08-08T20:09:48Z</time>
      </trkpt>
      <trkpt lat="51.231604931434" lon="4.459593583036">
        <ele>0</ele>
        <time>2020-08-08T20:09:54Z</time>
      </trkpt>
      <trkpt lat="51.231695036859" lon="4.459307257332">
        <ele>0</ele>
        <time>2020-08-08T20:10:23Z</time>
      </trkpt>
      <trkpt lat="51.231628316935" lon="4.459216313717">
        <ele>6</ele>
        <time>2020-08-08T20:10:58Z</time>
      </trkpt>
      <trkpt lat="51.231516334751" lon="4.458514916325">
        <ele>4.4</ele>
        <time>2020-08-08T20:11:32Z</time>
      </trkpt>
      <trkpt lat="51.231449028094" lon="4.458449788962">
        <ele>0</ele>
        <time>2020-08-08T20:11:51Z</time>
      </trkpt>
      <trkpt lat="51.231262614638" lon="4.458121553758">
        <ele>0</ele>
        <time>2020-08-08T20:12:33Z</time>
      </trkpt>
      <trkpt lat="51.231249119779" lon="4.458071597634">
        <ele>0</ele>
        <time>2020-08-08T20:12:37Z</time>
      </trkpt>
      <trkpt lat="51.231237720395" lon="4.457363410903">
        <ele>0</ele>
        <time>2020-08-08T20:13:39Z</time>
      </trkpt>
      <trkpt lat="51.231317599902" lon="4.456648099557">
        <ele>0.2</ele>
        <time>2020-08-08T20:14:19Z</time>
      </trkpt>
      <trkpt lat="51.231293376211" lon="4.456381638956">
        <ele>1.4</ele>
        <time>2020-08-08T20:14:31Z</time>
      </trkpt>
      <trkpt lat="51.231241324612" lon="4.456297736137">
        <ele>3.2</ele>
        <time>2020-08-08T20:14:38Z</time>
      </trkpt>
      <trkpt lat="51.231090953326" lon="4.456237554095">
        <ele>0</ele>
        <time>2020-08-08T20:15:02Z</time>
      </trkpt>
      <trkpt lat="51.230906970621" lon="4.456183742297">
        <ele>0</ele>
        <time>2020-08-08T20:15:21Z</time>
      </trkpt>
      <trkpt lat="51.230866737501" lon="4.456194303491">
        <ele>0</ele>
        <time>2020-08-08T20:15:33Z</time>
      </trkpt>
      <trkpt lat="51.230963045532" lon="4.455987438199">
        <ele>0</ele>
        <time>2020-08-08T20:15:51Z</time>
      </trkpt>
      <trkpt lat="51.231144094572" lon="4.455904541208">
        <ele>0</ele>
        <time>2020-08-08T20:16:12Z</time>
      </trkpt>
      <trkpt lat="51.231195894714" lon="4.455863972812">
        <ele>0.2</ele>
        <time>2020-08-08T20:16:18Z</time>
      </trkpt>
      <trkpt lat="51.231224476993" lon="4.455715026449">
        <ele>0</ele>
        <time>2020-08-08T20:16:27Z</time>
      </trkpt>
      <trkpt lat="51.23121802293" lon="4.455591896338">
        <ele>0</ele>
        <time>2020-08-08T20:16:37Z</time>
      </trkpt>
      <trkpt lat="51.231199666569" lon="4.454865520884">
        <ele>8.6</ele>
        <time>2020-08-08T20:17:15Z</time>
      </trkpt>
      <trkpt lat="51.231110566972" lon="4.454306867249">
        <ele>9.4</ele>
        <time>2020-08-08T20:17:41Z</time>
      </trkpt>
      <trkpt lat="51.230911580666" lon="4.453673698523">
        <ele>4</ele>
        <time>2020-08-08T20:18:19Z</time>
      </trkpt>
      <trkpt lat="51.230893727219" lon="4.45344260954">
        <ele>6.6</ele>
        <time>2020-08-08T20:18:31Z</time>
      </trkpt>
      <trkpt lat="51.230827258752" lon="4.452926368319">
        <ele>6.4</ele>
        <time>2020-08-08T20:18:56Z</time>
      </trkpt>
      <trkpt lat="51.230722065907" lon="4.452223713642">
        <ele>0.4</ele>
        <time>2020-08-08T20:19:35Z</time>
      </trkpt>
      <trkpt lat="51.230669679032" lon="4.451998911084">
        <ele>14.2</ele>
        <time>2020-08-08T20:19:49Z</time>
      </trkpt>
      <trkpt lat="51.230623662401" lon="4.451916433188">
        <ele>8.2</ele>
        <time>2020-08-08T20:19:59Z</time>
      </trkpt>
      <trkpt lat="51.230655765078" lon="4.451542600448">
        <ele>7.8</ele>
        <time>2020-08-08T20:20:40Z</time>
      </trkpt>
      <trkpt lat="51.230486618336" lon="4.4512499045">
        <ele>8</ele>
        <time>2020-08-08T20:20:55Z</time>
      </trkpt>
      <trkpt lat="51.230450911442" lon="4.451128199312">
        <ele>6.4</ele>
        <time>2020-08-08T20:21:01Z</time>
      </trkpt>
      <trkpt lat="51.23044437356" lon="4.451027448874">
        <ele>3.6</ele>
        <time>2020-08-08T20:21:07Z</time>
      </trkpt>
      <trkpt lat="51.230466753233" lon="4.450991071428">
        <ele>2.6</ele>
        <time>2020-08-08T20:21:11Z</time>
      </trkpt>
      <trkpt lat="51.230491396019" lon="4.450937008173">
        <ele>1.6</ele>
        <time>2020-08-08T20:21:15Z</time>
      </trkpt>
      <trkpt lat="51.230485361051" lon="4.450749756527">
        <ele>0.4</ele>
        <time>2020-08-08T20:22:02Z</time>
      </trkpt>
      <trkpt lat="51.230853661737" lon="4.450572395523">
        <ele>5.2</ele>
        <time>2020-08-08T20:22:47Z</time>
      </trkpt>
      <trkpt lat="51.231100005778" lon="4.450354214666">
        <ele>0</ele>
        <time>2020-08-08T20:23:10Z</time>
      </trkpt>
      <trkpt lat="51.231084499263" lon="4.449845014241">
        <ele>7.6</ele>
        <time>2020-08-08T20:23:35Z</time>
      </trkpt>
      <trkpt lat="51.230909066096" lon="4.449182760322">
        <ele>8.8</ele>
        <time>2020-08-08T20:24:06Z</time>
      </trkpt>
      <trkpt lat="51.230875119401" lon="4.448983774016">
        <ele>7.6</ele>
        <time>2020-08-08T20:24:15Z</time>
      </trkpt>
      <trkpt lat="51.230795826627" lon="4.448736843242">
        <ele>3.8</ele>
        <time>2020-08-08T20:24:29Z</time>
      </trkpt>
      <trkpt lat="51.230620561098" lon="4.448110212398">
        <ele>0</ele>
        <time>2020-08-08T20:25:02Z</time>
      </trkpt>
      <trkpt lat="51.23048963582" lon="4.447719951134">
        <ele>0</ele>
        <time>2020-08-08T20:25:26Z</time>
      </trkpt>
      <trkpt lat="51.230522995782" lon="4.447619200696">
        <ele>2</ele>
        <time>2020-08-08T20:25:40Z</time>
      </trkpt>
      <trkpt lat="51.230402380241" lon="4.447279901384">
        <ele>0</ele>
        <time>2020-08-08T20:26:07Z</time>
      </trkpt>
      <trkpt lat="51.230227198531" lon="4.446616641637">
        <ele>0</ele>
        <time>2020-08-08T20:26:39Z</time>
      </trkpt>
      <trkpt lat="51.230049250794" lon="4.446100484235">
        <ele>0</ele>
        <time>2020-08-08T20:27:07Z</time>
      </trkpt>
      <trkpt lat="51.229952523668" lon="4.446144656848">
        <ele>0</ele>
        <time>2020-08-08T20:27:15Z</time>
      </trkpt>
      <trkpt lat="51.229796787966" lon="4.446532319723">
        <ele>1.4</ele>
        <time>2020-08-08T20:27:50Z</time>
      </trkpt>
      <trkpt lat="51.2296615041" lon="4.447057026663">
        <ele>7</ele>
        <time>2020-08-08T20:28:32Z</time>
      </trkpt>
      <trkpt lat="51.229785137125" lon="4.447765632489">
        <ele>6</ele>
        <time>2020-08-08T20:29:04Z</time>
      </trkpt>
      <trkpt lat="51.229965515613" lon="4.448425790933">
        <ele>0</ele>
        <time>2020-08-08T20:29:40Z</time>
      </trkpt>
      <trkpt lat="51.230067690974" lon="4.448888387994">
        <ele>0</ele>
        <time>2020-08-08T20:30:16Z</time>
      </trkpt>
      <trkpt lat="51.230216637337" lon="4.449575703794">
        <ele>8.2</ele>
        <time>2020-08-08T20:30:57Z</time>
      </trkpt>
      <trkpt lat="51.230373630324" lon="4.450244411776">
        <ele>4.8</ele>
        <time>2020-08-08T20:31:36Z</time>
      </trkpt>
      <trkpt lat="51.230505142335" lon="4.45066568607">
        <ele>6.6</ele>
        <time>2020-08-08T20:32:04Z</time>
      </trkpt>
      <trkpt lat="51.230533137881" lon="4.450771381829">
        <ele>7.4</ele>
        <time>2020-08-08T20:32:13Z</time>
      </trkpt>
      <trkpt lat="51.230531293863" lon="4.450820415944">
        <ele>7.8</ele>
        <time>2020-08-08T20:32:16Z</time>
      </trkpt>
      <trkpt lat="51.230592397914" lon="4.451461212199">
        <ele>1.8</ele>
        <time>2020-08-08T20:32:59Z</time>
      </trkpt>
      <trkpt lat="51.230746038141" lon="4.452136793339">
        <ele>4</ele>
        <time>2020-08-08T20:33:41Z</time>
      </trkpt>
      <trkpt lat="51.230780655388" lon="4.452279956191">
        <ele>6.6</ele>
        <time>2020-08-08T20:33:54Z</time>
      </trkpt>
      <trkpt lat="51.230912670313" lon="4.452978922832">
        <ele>2.4</ele>
        <time>2020-08-08T20:34:39Z</time>
      </trkpt>
      <trkpt lat="51.230986431033" lon="4.453713177272">
        <ele>2.2</ele>
        <time>2020-08-08T20:35:18Z</time>
      </trkpt>
      <trkpt lat="51.23110654366" lon="4.454350201672">
        <ele>0</ele>
        <time>2020-08-08T20:36:33Z</time>
      </trkpt>
      <trkpt lat="51.231229589952" lon="4.455049922684">
        <ele>0</ele>
        <time>2020-08-08T20:37:18Z</time>
      </trkpt>
      <trkpt lat="51.231388426957" lon="4.455723995082">
        <ele>0</ele>
        <time>2020-08-08T20:38:07Z</time>
      </trkpt>
      <trkpt lat="51.231211987962" lon="4.456394044168">
        <ele>0</ele>
        <time>2020-08-08T20:38:48Z</time>
      </trkpt>
      <trkpt lat="51.231041835392" lon="4.456474175132">
        <ele>1.6</ele>
        <time>2020-08-08T20:39:09Z</time>
      </trkpt>
      <trkpt lat="51.230584016014" lon="4.456479623367">
        <ele>10.4</ele>
        <time>2020-08-08T20:40:00Z</time>
      </trkpt>
      <trkpt lat="51.230171877991" lon="4.456778019007">
        <ele>11</ele>
        <time>2020-08-08T20:40:45Z</time>
      </trkpt>
      <trkpt lat="51.229701821039" lon="4.456850187166">
        <ele>9.2</ele>
        <time>2020-08-08T20:41:26Z</time>
      </trkpt>
      <trkpt lat="51.229482215259" lon="4.456860999817">
        <ele>12.8</ele>
        <time>2020-08-08T20:41:54Z</time>
      </trkpt>
      <trkpt lat="51.229035543808" lon="4.45696971306">
        <ele>14.8</ele>
        <time>2020-08-08T20:42:37Z</time>
      </trkpt>
      <trkpt lat="51.228609910926" lon="4.457243298276">
        <ele>7.6</ele>
        <time>2020-08-08T20:43:16Z</time>
      </trkpt>
      <trkpt lat="51.228501532959" lon="4.457299708463">
        <ele>4.6</ele>
        <time>2020-08-08T20:43:26Z</time>
      </trkpt>
      <trkpt lat="51.228556937318" lon="4.458015355085">
        <ele>6.2</ele>
        <time>2020-08-08T20:44:09Z</time>
      </trkpt>
      <trkpt lat="51.228599852646" lon="4.458238313625">
        <ele>5.8</ele>
        <time>2020-08-08T20:44:25Z</time>
      </trkpt>
      <trkpt lat="51.229035879084" lon="4.458197158496">
        <ele>8</ele>
        <time>2020-08-08T20:45:05Z</time>
      </trkpt>
      <trkpt lat="51.229269147361" lon="4.458031951247">
        <ele>11.4</ele>
        <time>2020-08-08T20:45:39Z</time>
      </trkpt>
      <trkpt lat="51.229374088749" lon="4.457947126419">
        <ele>16.8</ele>
        <time>2020-08-08T20:46:04Z</time>
      </trkpt>
      <trkpt lat="51.229731157689" lon="4.458038153853">
        <ele>3</ele>
        <time>2020-08-08T20:47:33Z</time>
      </trkpt>
      <trkpt lat="51.229757393036" lon="4.458119290645">
        <ele>0</ele>
        <time>2020-08-08T20:47:42Z</time>
      </trkpt>
    </trkseg>
  </trk>
</gpx>